sensor_id;sensor_type;location;lat;lon;timestamp;P1;durP1;ratioP1;P2;durP2;ratioP2
45322;SDS011;31382;50.200;8.674;2023-04-30T00:05:01;17.48;;;11.35;;
45322;SDS011;31382;50.200;8.674;2023-04-30T00:10:03;16.63;;;11.77;;
45322;SDS011;31382;50.200;8.674;2023-04-30T00:15:05;19.27;;;12.48;;
45322;SDS011;31382;50.200;8.674;2023-04-30T00:20:07;18.77;;;12.82;;
45322;SDS011;31382;50.200;8.674;2023-04-30T00:25:08;17.08;;;11.80;;
45322;SDS011;31382;50.200;8.674;2023-04-30T00:30:10;17.23;;;12.77;;
45322;SDS011;31382;50.200;8.674;2023-04-30T00:35:12;18.15;;;13.02;;
45322;SDS011;31382;50.200;8.674;2023-04-30T00:40:13;21.30;;;13.63;;
45322;SDS011;31382;50.200;8.674;2023-04-30T00:45:15;20.33;;;14.25;;
45322;SDS011;31382;50.200;8.674;2023-04-30T00:50:18;23.42;;;15.32;;
45322;SDS011;31382;50.200;8.674;2023-04-30T00:55:19;21.67;;;15.50;;
45322;SDS011;31382;50.200;8.674;2023-04-30T01:00:21;26.27;;;14.95;;
45322;SDS011;31382;50.200;8.674;2023-04-30T01:05:23;20.88;;;14.25;;
45322;SDS011;31382;50.200;8.674;2023-04-30T01:15:46;25.10;;;16.15;;
45322;SDS011;31382;50.200;8.674;2023-04-30T01:21:00;22.65;;;16.60;;
45322;SDS011;31382;50.200;8.674;2023-04-30T01:26:26;21.98;;;14.75;;
45322;SDS011;31382;50.200;8.674;2023-04-30T01:31:44;28.67;;;16.77;;
45322;SDS011;31382;50.200;8.674;2023-04-30T01:37:00;21.83;;;14.88;;
45322;SDS011;31382;50.200;8.674;2023-04-30T01:52:33;27.60;;;16.02;;
45322;SDS011;31382;50.200;8.674;2023-04-30T01:58:00;24.90;;;16.27;;
45322;SDS011;31382;50.200;8.674;2023-04-30T02:03:05;25.35;;;16.50;;
45322;SDS011;31382;50.200;8.674;2023-04-30T02:08:07;26.65;;;16.85;;
45322;SDS011;31382;50.200;8.674;2023-04-30T02:13:09;25.10;;;16.80;;
45322;SDS011;31382;50.200;8.674;2023-04-30T02:18:10;23.15;;;15.50;;
45322;SDS011;31382;50.200;8.674;2023-04-30T02:23:11;25.10;;;17.00;;
45322;SDS011;31382;50.200;8.674;2023-04-30T02:28:13;28.85;;;17.42;;
45322;SDS011;31382;50.200;8.674;2023-04-30T02:33:14;28.65;;;17.13;;
45322;SDS011;31382;50.200;8.674;2023-04-30T02:38:16;29.10;;;17.30;;
45322;SDS011;31382;50.200;8.674;2023-04-30T02:43:17;24.42;;;16.15;;
45322;SDS011;31382;50.200;8.674;2023-04-30T02:48:18;27.45;;;16.92;;
45322;SDS011;31382;50.200;8.674;2023-04-30T02:53:20;28.85;;;17.98;;
45322;SDS011;31382;50.200;8.674;2023-04-30T02:58:21;30.08;;;18.33;;
45322;SDS011;31382;50.200;8.674;2023-04-30T03:03:22;31.10;;;17.45;;
45322;SDS011;31382;50.200;8.674;2023-04-30T03:08:24;27.08;;;18.08;;
45322;SDS011;31382;50.200;8.674;2023-04-30T03:13:26;28.58;;;18.40;;
45322;SDS011;31382;50.200;8.674;2023-04-30T03:18:28;27.55;;;18.10;;
45322;SDS011;31382;50.200;8.674;2023-04-30T03:23:29;26.27;;;17.25;;
45322;SDS011;31382;50.200;8.674;2023-04-30T03:28:31;29.13;;;17.05;;
45322;SDS011;31382;50.200;8.674;2023-04-30T03:33:32;29.65;;;17.58;;
45322;SDS011;31382;50.200;8.674;2023-04-30T03:38:34;27.70;;;17.55;;
45322;SDS011;31382;50.200;8.674;2023-04-30T03:43:36;23.30;;;16.52;;
45322;SDS011;31382;50.200;8.674;2023-04-30T03:48:38;29.23;;;17.95;;
45322;SDS011;31382;50.200;8.674;2023-04-30T03:53:39;29.67;;;16.20;;
45322;SDS011;31382;50.200;8.674;2023-04-30T03:58:40;26.52;;;16.33;;
45322;SDS011;31382;50.200;8.674;2023-04-30T04:03:42;24.33;;;16.50;;
45322;SDS011;31382;50.200;8.674;2023-04-30T04:08:43;26.67;;;16.90;;
45322;SDS011;31382;50.200;8.674;2023-04-30T04:13:44;27.08;;;17.23;;
45322;SDS011;31382;50.200;8.674;2023-04-30T04:18:46;23.30;;;16.08;;
45322;SDS011;31382;50.200;8.674;2023-04-30T04:23:47;24.83;;;15.50;;
45322;SDS011;31382;50.200;8.674;2023-04-30T04:28:49;25.13;;;17.40;;
45322;SDS011;31382;50.200;8.674;2023-04-30T04:33:50;26.02;;;16.50;;
45322;SDS011;31382;50.200;8.674;2023-04-30T04:38:58;21.88;;;15.55;;
45322;SDS011;31382;50.200;8.674;2023-04-30T04:44:02;22.63;;;14.63;;
45322;SDS011;31382;50.200;8.674;2023-04-30T04:49:04;24.73;;;15.50;;
45322;SDS011;31382;50.200;8.674;2023-04-30T04:54:06;23.33;;;16.10;;
45322;SDS011;31382;50.200;8.674;2023-04-30T04:59:07;23.40;;;15.18;;
45322;SDS011;31382;50.200;8.674;2023-04-30T05:04:09;24.63;;;15.40;;
45322;SDS011;31382;50.200;8.674;2023-04-30T05:09:10;28.58;;;15.95;;
45322;SDS011;31382;50.200;8.674;2023-04-30T05:14:11;24.63;;;15.52;;
45322;SDS011;31382;50.200;8.674;2023-04-30T05:19:13;25.77;;;16.23;;
45322;SDS011;31382;50.200;8.674;2023-04-30T05:24:14;22.75;;;15.35;;
45322;SDS011;31382;50.200;8.674;2023-04-30T05:29:16;26.35;;;15.00;;
45322;SDS011;31382;50.200;8.674;2023-04-30T05:34:17;22.08;;;13.63;;
45322;SDS011;31382;50.200;8.674;2023-04-30T05:39:18;22.30;;;14.48;;
45322;SDS011;31382;50.200;8.674;2023-04-30T05:44:20;26.67;;;13.48;;
45322;SDS011;31382;50.200;8.674;2023-04-30T05:49:22;21.23;;;13.65;;
45322;SDS011;31382;50.200;8.674;2023-04-30T05:54:23;18.63;;;12.45;;
45322;SDS011;31382;50.200;8.674;2023-04-30T05:59:24;16.73;;;10.77;;
45322;SDS011;31382;50.200;8.674;2023-04-30T06:04:26;18.33;;;11.20;;
45322;SDS011;31382;50.200;8.674;2023-04-30T06:09:27;15.20;;;10.20;;
45322;SDS011;31382;50.200;8.674;2023-04-30T06:14:28;12.88;;;8.95;;
45322;SDS011;31382;50.200;8.674;2023-04-30T06:19:30;13.98;;;9.18;;
45322;SDS011;31382;50.200;8.674;2023-04-30T06:24:32;14.18;;;8.38;;
45322;SDS011;31382;50.200;8.674;2023-04-30T06:29:33;16.73;;;9.25;;
45322;SDS011;31382;50.200;8.674;2023-04-30T06:34:34;13.23;;;8.90;;
45322;SDS011;31382;50.200;8.674;2023-04-30T06:39:37;12.18;;;8.63;;
45322;SDS011;31382;50.200;8.674;2023-04-30T06:44:38;12.75;;;7.60;;
45322;SDS011;31382;50.200;8.674;2023-04-30T06:49:39;15.13;;;8.50;;
45322;SDS011;31382;50.200;8.674;2023-04-30T06:54:41;14.98;;;7.50;;
45322;SDS011;31382;50.200;8.674;2023-04-30T06:59:43;13.70;;;8.15;;
45322;SDS011;31382;50.200;8.674;2023-04-30T07:04:45;12.05;;;7.40;;
45322;SDS011;31382;50.200;8.674;2023-04-30T07:09:46;10.25;;;6.55;;
45322;SDS011;31382;50.200;8.674;2023-04-30T07:14:51;12.68;;;6.70;;
45322;SDS011;31382;50.200;8.674;2023-04-30T07:19:53;10.50;;;6.88;;
45322;SDS011;31382;50.200;8.674;2023-04-30T07:24:55;11.75;;;6.30;;
45322;SDS011;31382;50.200;8.674;2023-04-30T07:29:56;10.30;;;6.57;;
45322;SDS011;31382;50.200;8.674;2023-04-30T07:34:58;9.63;;;6.38;;
45322;SDS011;31382;50.200;8.674;2023-04-30T07:39:59;12.32;;;7.20;;
45322;SDS011;31382;50.200;8.674;2023-04-30T07:45:00;7.40;;;4.80;;
45322;SDS011;31382;50.200;8.674;2023-04-30T07:50:03;9.90;;;6.20;;
45322;SDS011;31382;50.200;8.674;2023-04-30T07:55:05;9.80;;;6.22;;
45322;SDS011;31382;50.200;8.674;2023-04-30T08:00:07;8.68;;;5.88;;
45322;SDS011;31382;50.200;8.674;2023-04-30T08:05:09;8.55;;;6.68;;
45322;SDS011;31382;50.200;8.674;2023-04-30T08:10:11;6.93;;;5.05;;
45322;SDS011;31382;50.200;8.674;2023-04-30T08:15:12;6.03;;;5.15;;
45322;SDS011;31382;50.200;8.674;2023-04-30T08:20:14;9.25;;;5.90;;
45322;SDS011;31382;50.200;8.674;2023-04-30T08:25:15;15.13;;;5.70;;
45322;SDS011;31382;50.200;8.674;2023-04-30T08:30:17;6.53;;;4.15;;
45322;SDS011;31382;50.200;8.674;2023-04-30T08:35:20;9.23;;;4.50;;
45322;SDS011;31382;50.200;8.674;2023-04-30T08:40:21;6.38;;;4.25;;
45322;SDS011;31382;50.200;8.674;2023-04-30T08:45:43;5.72;;;3.67;;
45322;SDS011;31382;50.200;8.674;2023-04-30T08:50:45;4.97;;;3.00;;
45322;SDS011;31382;50.200;8.674;2023-04-30T08:55:47;5.28;;;3.05;;
45322;SDS011;31382;50.200;8.674;2023-04-30T09:00:48;3.05;;;2.75;;
45322;SDS011;31382;50.200;8.674;2023-04-30T09:05:49;5.68;;;2.65;;
45322;SDS011;31382;50.200;8.674;2023-04-30T09:10:51;2.63;;;2.10;;
45322;SDS011;31382;50.200;8.674;2023-04-30T09:15:52;4.38;;;2.00;;
45322;SDS011;31382;50.200;8.674;2023-04-30T09:26:02;2.35;;;1.70;;
45322;SDS011;31382;50.200;8.674;2023-04-30T09:31:04;3.08;;;1.80;;
45322;SDS011;31382;50.200;8.674;2023-04-30T09:36:20;5.53;;;1.50;;
45322;SDS011;31382;50.200;8.674;2023-04-30T09:41:25;3.88;;;1.25;;
45322;SDS011;31382;50.200;8.674;2023-04-30T09:46:31;3.83;;;1.60;;
45322;SDS011;31382;50.200;8.674;2023-04-30T09:51:34;2.70;;;0.97;;
45322;SDS011;31382;50.200;8.674;2023-04-30T09:56:35;2.38;;;1.05;;
45322;SDS011;31382;50.200;8.674;2023-04-30T10:01:39;2.17;;;0.90;;
45322;SDS011;31382;50.200;8.674;2023-04-30T10:06:41;1.95;;;0.70;;
45322;SDS011;31382;50.200;8.674;2023-04-30T10:11:43;1.30;;;0.60;;
45322;SDS011;31382;50.200;8.674;2023-04-30T10:16:50;1.25;;;0.88;;
45322;SDS011;31382;50.200;8.674;2023-04-30T10:21:57;1.67;;;0.88;;
45322;SDS011;31382;50.200;8.674;2023-04-30T10:26:59;1.77;;;0.70;;
45322;SDS011;31382;50.200;8.674;2023-04-30T10:32:01;1.33;;;0.75;;
45322;SDS011;31382;50.200;8.674;2023-04-30T10:37:10;0.95;;;0.50;;
45322;SDS011;31382;50.200;8.674;2023-04-30T10:42:19;3.63;;;0.70;;
45322;SDS011;31382;50.200;8.674;2023-04-30T10:47:20;0.70;;;0.40;;
45322;SDS011;31382;50.200;8.674;2023-04-30T10:52:29;1.05;;;0.35;;
45322;SDS011;31382;50.200;8.674;2023-04-30T10:57:30;4.72;;;0.40;;
45322;SDS011;31382;50.200;8.674;2023-04-30T11:02:41;1.00;;;0.30;;
45322;SDS011;31382;50.200;8.674;2023-04-30T11:07:56;0.70;;;0.32;;
45322;SDS011;31382;50.200;8.674;2023-04-30T11:12:58;1.98;;;0.30;;
45322;SDS011;31382;50.200;8.674;2023-04-30T11:18:05;0.50;;;0.30;;
45322;SDS011;31382;50.200;8.674;2023-04-30T11:23:11;1.23;;;0.10;;
45322;SDS011;31382;50.200;8.674;2023-04-30T11:33:30;0.25;;;0.10;;
45322;SDS011;31382;50.200;8.674;2023-04-30T11:38:34;0.00;;;0.00;;
45322;SDS011;31382;50.200;8.674;2023-04-30T11:43:36;0.00;;;0.00;;
45322;SDS011;31382;50.200;8.674;2023-04-30T11:48:41;0.00;;;0.00;;
45322;SDS011;31382;50.200;8.674;2023-04-30T11:53:48;0.10;;;0.00;;
45322;SDS011;31382;50.200;8.674;2023-04-30T11:58:50;1.90;;;0.60;;
45322;SDS011;31382;50.200;8.674;2023-04-30T12:03:54;0.60;;;0.00;;
45322;SDS011;31382;50.200;8.674;2023-04-30T12:08:59;0.10;;;0.00;;
45322;SDS011;31382;50.200;8.674;2023-04-30T12:14:05;0.20;;;0.00;;
45322;SDS011;31382;50.200;8.674;2023-04-30T12:19:11;0.03;;;0.00;;
45322;SDS011;31382;50.200;8.674;2023-04-30T12:24:13;0.10;;;0.10;;
45322;SDS011;31382;50.200;8.674;2023-04-30T12:29:17;0.00;;;0.00;;
45322;SDS011;31382;50.200;8.674;2023-04-30T12:34:19;0.10;;;0.00;;
45322;SDS011;31382;50.200;8.674;2023-04-30T12:39:20;0.15;;;0.00;;
45322;SDS011;31382;50.200;8.674;2023-04-30T12:44:22;1.35;;;0.05;;
45322;SDS011;31382;50.200;8.674;2023-04-30T12:49:26;0.10;;;0.00;;
45322;SDS011;31382;50.200;8.674;2023-04-30T12:54:33;1.45;;;0.20;;
45322;SDS011;31382;50.200;8.674;2023-04-30T12:59:37;0.08;;;0.08;;
45322;SDS011;31382;50.200;8.674;2023-04-30T13:04:40;0.47;;;0.30;;
45322;SDS011;31382;50.200;8.674;2023-04-30T13:09:42;0.25;;;0.10;;
45322;SDS011;31382;50.200;8.674;2023-04-30T13:14:44;0.25;;;0.17;;
45322;SDS011;31382;50.200;8.674;2023-04-30T13:19:45;0.10;;;0.00;;
45322;SDS011;31382;50.200;8.674;2023-04-30T13:24:47;0.15;;;0.08;;
45322;SDS011;31382;50.200;8.674;2023-04-30T13:29:48;0.52;;;0.10;;
45322;SDS011;31382;50.200;8.674;2023-04-30T13:34:49;0.10;;;0.10;;
45322;SDS011;31382;50.200;8.674;2023-04-30T13:39:55;0.08;;;0.08;;
45322;SDS011;31382;50.200;8.674;2023-04-30T13:44:57;1.10;;;0.10;;
45322;SDS011;31382;50.200;8.674;2023-04-30T13:49:58;0.30;;;0.10;;
45322;SDS011;31382;50.200;8.674;2023-04-30T13:55:00;0.30;;;0.10;;
45322;SDS011;31382;50.200;8.674;2023-04-30T14:00:01;0.38;;;0.15;;
45322;SDS011;31382;50.200;8.674;2023-04-30T14:05:04;0.10;;;0.10;;
45322;SDS011;31382;50.200;8.674;2023-04-30T14:10:07;0.28;;;0.03;;
45322;SDS011;31382;50.200;8.674;2023-04-30T14:15:08;0.20;;;0.10;;
45322;SDS011;31382;50.200;8.674;2023-04-30T14:20:10;0.70;;;0.00;;
45322;SDS011;31382;50.200;8.674;2023-04-30T14:25:12;0.40;;;0.10;;
45322;SDS011;31382;50.200;8.674;2023-04-30T14:30:13;1.20;;;0.10;;
45322;SDS011;31382;50.200;8.674;2023-04-30T14:35:15;0.17;;;0.10;;
45322;SDS011;31382;50.200;8.674;2023-04-30T14:40:17;0.00;;;0.00;;
45322;SDS011;31382;50.200;8.674;2023-04-30T14:45:18;1.55;;;0.00;;
45322;SDS011;31382;50.200;8.674;2023-04-30T14:50:19;1.25;;;0.15;;
45322;SDS011;31382;50.200;8.674;2023-04-30T14:55:21;0.20;;;0.20;;
45322;SDS011;31382;50.200;8.674;2023-04-30T15:00:22;1.13;;;0.20;;
45322;SDS011;31382;50.200;8.674;2023-04-30T15:05:24;0.10;;;0.10;;
45322;SDS011;31382;50.200;8.674;2023-04-30T15:10:26;2.33;;;0.30;;
45322;SDS011;31382;50.200;8.674;2023-04-30T15:15:27;1.38;;;0.10;;
45322;SDS011;31382;50.200;8.674;2023-04-30T15:20:29;0.73;;;0.10;;
45322;SDS011;31382;50.200;8.674;2023-04-30T15:25:31;0.68;;;0.10;;
45322;SDS011;31382;50.200;8.674;2023-04-30T15:30:33;0.17;;;0.00;;
45322;SDS011;31382;50.200;8.674;2023-04-30T15:35:34;2.75;;;0.20;;
45322;SDS011;31382;50.200;8.674;2023-04-30T15:40:35;0.75;;;0.20;;
45322;SDS011;31382;50.200;8.674;2023-04-30T15:45:37;0.55;;;0.10;;
45322;SDS011;31382;50.200;8.674;2023-04-30T15:50:38;0.90;;;0.28;;
45322;SDS011;31382;50.200;8.674;2023-04-30T15:55:40;0.10;;;0.10;;
45322;SDS011;31382;50.200;8.674;2023-04-30T16:00:42;1.50;;;0.20;;
45322;SDS011;31382;50.200;8.674;2023-04-30T16:05:44;0.55;;;0.00;;
45322;SDS011;31382;50.200;8.674;2023-04-30T16:10:45;0.50;;;0.08;;
45322;SDS011;31382;50.200;8.674;2023-04-30T16:15:47;0.57;;;0.20;;
45322;SDS011;31382;50.200;8.674;2023-04-30T16:20:48;0.50;;;0.10;;
45322;SDS011;31382;50.200;8.674;2023-04-30T16:25:50;0.10;;;0.03;;
45322;SDS011;31382;50.200;8.674;2023-04-30T16:30:51;1.75;;;0.20;;
45322;SDS011;31382;50.200;8.674;2023-04-30T16:35:52;1.27;;;0.15;;
45322;SDS011;31382;50.200;8.674;2023-04-30T16:40:55;0.10;;;0.10;;
45322;SDS011;31382;50.200;8.674;2023-04-30T16:45:56;1.95;;;0.15;;
45322;SDS011;31382;50.200;8.674;2023-04-30T16:50:58;0.20;;;0.13;;
45322;SDS011;31382;50.200;8.674;2023-04-30T16:55:59;0.15;;;0.15;;
45322;SDS011;31382;50.200;8.674;2023-04-30T17:01:01;1.15;;;0.47;;
45322;SDS011;31382;50.200;8.674;2023-04-30T17:06:02;0.20;;;0.17;;
45322;SDS011;31382;50.200;8.674;2023-04-30T17:11:05;0.40;;;0.15;;
45322;SDS011;31382;50.200;8.674;2023-04-30T17:16:06;0.22;;;0.20;;
45322;SDS011;31382;50.200;8.674;2023-04-30T17:21:08;2.38;;;0.10;;
45322;SDS011;31382;50.200;8.674;2023-04-30T17:26:09;3.20;;;0.20;;
45322;SDS011;31382;50.200;8.674;2023-04-30T17:31:10;0.73;;;0.10;;
45322;SDS011;31382;50.200;8.674;2023-04-30T17:36:13;2.40;;;0.20;;
45322;SDS011;31382;50.200;8.674;2023-04-30T17:41:16;0.28;;;0.20;;
45322;SDS011;31382;50.200;8.674;2023-04-30T17:46:18;1.33;;;0.10;;
45322;SDS011;31382;50.200;8.674;2023-04-30T17:51:20;1.65;;;0.20;;
45322;SDS011;31382;50.200;8.674;2023-04-30T17:56:21;0.77;;;0.20;;
45322;SDS011;31382;50.200;8.674;2023-04-30T18:01:24;0.22;;;0.10;;
45322;SDS011;31382;50.200;8.674;2023-04-30T18:06:26;0.20;;;0.20;;
45322;SDS011;31382;50.200;8.674;2023-04-30T18:11:28;3.40;;;0.30;;
45322;SDS011;31382;50.200;8.674;2023-04-30T18:16:30;0.30;;;0.20;;
45322;SDS011;31382;50.200;8.674;2023-04-30T18:21:33;1.70;;;0.80;;
45322;SDS011;31382;50.200;8.674;2023-04-30T18:26:35;1.33;;;0.90;;
45322;SDS011;31382;50.200;8.674;2023-04-30T18:31:37;1.60;;;1.13;;
45322;SDS011;31382;50.200;8.674;2023-04-30T18:36:39;0.40;;;0.38;;
45322;SDS011;31382;50.200;8.674;2023-04-30T18:41:43;1.35;;;0.50;;
45322;SDS011;31382;50.200;8.674;2023-04-30T18:46:44;1.95;;;0.95;;
45322;SDS011;31382;50.200;8.674;2023-04-30T18:51:46;1.50;;;0.70;;
45322;SDS011;31382;50.200;8.674;2023-04-30T18:56:47;1.27;;;0.80;;
45322;SDS011;31382;50.200;8.674;2023-04-30T19:01:48;1.25;;;0.95;;
45322;SDS011;31382;50.200;8.674;2023-04-30T19:06:50;0.93;;;0.47;;
45322;SDS011;31382;50.200;8.674;2023-04-30T19:11:52;0.63;;;0.40;;
45322;SDS011;31382;50.200;8.674;2023-04-30T19:16:54;9.45;;;4.35;;
45322;SDS011;31382;50.200;8.674;2023-04-30T19:21:55;10.60;;;5.43;;
45322;SDS011;31382;50.200;8.674;2023-04-30T19:26:57;3.28;;;0.70;;
45322;SDS011;31382;50.200;8.674;2023-04-30T19:31:58;0.93;;;0.70;;
45322;SDS011;31382;50.200;8.674;2023-04-30T19:37:00;2.17;;;0.60;;
45322;SDS011;31382;50.200;8.674;2023-04-30T19:42:01;0.52;;;0.50;;
45322;SDS011;31382;50.200;8.674;2023-04-30T19:47:03;1.20;;;0.60;;
45322;SDS011;31382;50.200;8.674;2023-04-30T19:52:05;5.20;;;3.50;;
45322;SDS011;31382;50.200;8.674;2023-04-30T19:57:08;6.40;;;3.33;;
45322;SDS011;31382;50.200;8.674;2023-04-30T20:02:09;1.88;;;1.40;;
45322;SDS011;31382;50.200;8.674;2023-04-30T20:07:11;1.73;;;0.82;;
45322;SDS011;31382;50.200;8.674;2023-04-30T20:12:13;2.13;;;0.70;;
45322;SDS011;31382;50.200;8.674;2023-04-30T20:17:14;1.35;;;0.73;;
45322;SDS011;31382;50.200;8.674;2023-04-30T20:22:16;1.42;;;0.80;;
45322;SDS011;31382;50.200;8.674;2023-04-30T20:27:17;1.40;;;0.90;;
45322;SDS011;31382;50.200;8.674;2023-04-30T20:32:19;1.48;;;0.80;;
45322;SDS011;31382;50.200;8.674;2023-04-30T20:37:20;2.13;;;1.42;;
45322;SDS011;31382;50.200;8.674;2023-04-30T20:42:21;1.77;;;1.02;;
45322;SDS011;31382;50.200;8.674;2023-04-30T20:47:23;2.67;;;1.00;;
45322;SDS011;31382;50.200;8.674;2023-04-30T20:52:24;1.98;;;1.13;;
45322;SDS011;31382;50.200;8.674;2023-04-30T20:57:26;2.20;;;0.85;;
45322;SDS011;31382;50.200;8.674;2023-04-30T21:02:27;1.10;;;1.00;;
45322;SDS011;31382;50.200;8.674;2023-04-30T21:07:30;2.88;;;1.27;;
45322;SDS011;31382;50.200;8.674;2023-04-30T21:12:34;2.33;;;1.10;;
45322;SDS011;31382;50.200;8.674;2023-04-30T21:17:35;2.78;;;1.30;;
45322;SDS011;31382;50.200;8.674;2023-04-30T21:22:38;5.03;;;1.90;;
45322;SDS011;31382;50.200;8.674;2023-04-30T21:27:39;2.42;;;1.58;;
45322;SDS011;31382;50.200;8.674;2023-04-30T21:32:44;4.22;;;2.35;;
45322;SDS011;31382;50.200;8.674;2023-04-30T21:37:47;4.88;;;2.80;;
45322;SDS011;31382;50.200;8.674;2023-04-30T21:42:48;3.50;;;2.33;;
45322;SDS011;31382;50.200;8.674;2023-04-30T21:47:50;4.03;;;2.28;;
45322;SDS011;31382;50.200;8.674;2023-04-30T21:52:52;5.10;;;2.65;;
45322;SDS011;31382;50.200;8.674;2023-04-30T21:57:53;7.20;;;2.75;;
45322;SDS011;31382;50.200;8.674;2023-04-30T22:02:54;6.13;;;2.08;;
45322;SDS011;31382;50.200;8.674;2023-04-30T22:07:56;4.90;;;2.15;;
45322;SDS011;31382;50.200;8.674;2023-04-30T22:12:57;4.65;;;1.65;;
45322;SDS011;31382;50.200;8.674;2023-04-30T22:17:59;6.75;;;1.70;;
45322;SDS011;31382;50.200;8.674;2023-04-30T22:23:00;3.30;;;1.45;;
45322;SDS011;31382;50.200;8.674;2023-04-30T22:28:01;2.85;;;1.23;;
45322;SDS011;31382;50.200;8.674;2023-04-30T22:33:03;3.63;;;1.45;;
45322;SDS011;31382;50.200;8.674;2023-04-30T22:38:05;4.03;;;1.30;;
45322;SDS011;31382;50.200;8.674;2023-04-30T22:43:07;5.93;;;1.80;;
45322;SDS011;31382;50.200;8.674;2023-04-30T22:48:09;3.67;;;1.33;;
45322;SDS011;31382;50.200;8.674;2023-04-30T22:53:11;3.28;;;1.10;;
45322;SDS011;31382;50.200;8.674;2023-04-30T22:58:13;3.25;;;1.30;;
45322;SDS011;31382;50.200;8.674;2023-04-30T23:03:14;2.65;;;1.70;;
45322;SDS011;31382;50.200;8.674;2023-04-30T23:08:16;3.55;;;1.20;;
45322;SDS011;31382;50.200;8.674;2023-04-30T23:13:17;2.25;;;1.13;;
45322;SDS011;31382;50.200;8.674;2023-04-30T23:18:19;4.55;;;1.02;;
45322;SDS011;31382;50.200;8.674;2023-04-30T23:23:21;1.98;;;0.90;;
45322;SDS011;31382;50.200;8.674;2023-04-30T23:28:23;2.30;;;0.82;;
45322;SDS011;31382;50.200;8.674;2023-04-30T23:33:25;3.10;;;1.55;;
45322;SDS011;31382;50.200;8.674;2023-04-30T23:38:26;4.07;;;1.13;;
45322;SDS011;31382;50.200;8.674;2023-04-30T23:43:28;4.07;;;0.95;;
45322;SDS011;31382;50.200;8.674;2023-04-30T23:48:31;1.67;;;0.90;;
45322;SDS011;31382;50.200;8.674;2023-04-30T23:53:32;2.05;;;0.68;;
45322;SDS011;31382;50.200;8.674;2023-04-30T23:58:35;2.05;;;1.10;;
